Aromas, California
Current Conditions -  °F | °C
As of 1:53 AM on Monday 22 Dec 2014 (Local Time) from KWVI Reporting Station
Moderate Fog Moderate Fog  
Wind Chill: 58°   Ceiling: 300
Heat Index: 58°   Visibility: 0.5mi
Dew Point: 57°   Wind: 0mph
Humidity: 97%   Direction: NA
Pressure: 30.27"   Gusts: NA
Location:  36.88°N, 121.64°W
Report Text: KWVI 220953Z AUTO 00000KT 1/2SM FG VV003 14/14 A3027 RMK AO2 SLP249 T01440139
Loading
Personal Weather Stations






























Interactive Weather Map New forecast layout! Learn more

10-Day Weather Forecast

Advertisements
Track Severe Weather on mobile